Time;durP1;ratioP1;P1;durP2;ratioP2;P2;SDS_P1;SDS_P2;PMS_P1;PMS_P2;Temp;Humidity;BMP_temperature;BMP_pressure;BME280_temperature;BME280_humidity;BME280_pressure;Samples;Min_cycle;Max_cycle;Signal;HPM_P1;HPM_P2
2022/12/15 00:39:17;;;;;;;55.72;22.10;;;;;;;-1.93;100.00;94111.44;5010890;28;20053;-76
2022/12/15 00:41:42;;;;;;;55.60;22.42;;;;;;;-1.90;100.00;94112.00;5009749;28;20427;-76
2022/12/15 00:44:08;;;;;;;56.67;22.48;;;;;;;-1.99;100.00;94107.19;5007574;28;20061;-76
2022/12/15 01:22:07;;;;;;;50.03;20.20;;;;;;;-2.02;100.00;94133.44;5000584;28;20050;-76
2022/12/15 01:24:33;;;;;;;54.33;22.05;;;;;;;-2.10;100.00;94136.31;5002564;28;20048;-76
2022/12/15 01:26:59;;;;;;;52.00;20.95;;;;;;;-2.13;100.00;94131.63;5001592;28;20551;-76
2022/12/15 01:29:24;;;;;;;55.85;22.23;;;;;;;-2.18;100.00;94139.25;5007428;28;20045;-76
2022/12/15 01:31:50;;;;;;;44.72;19.15;;;;;;;-2.18;100.00;94139.25;5003112;28;20511;-76
2022/12/15 01:34:16;;;;;;;55.40;21.58;;;;;;;-2.15;100.00;94138.81;5008364;28;20045;-76
2022/12/15 01:36:42;;;;;;;56.55;21.65;;;;;;;-2.22;100.00;94143.28;5002583;28;20042;-76
2022/12/15 01:39:07;;;;;;;58.28;23.20;;;;;;;-2.10;100.00;94152.59;5001399;28;20046;-76
2022/12/15 01:41:33;;;;;;;48.17;21.80;;;;;;;-2.08;100.00;94157.53;5009677;28;20033;-76
2022/12/15 01:44:22;;;;;;;54.58;23.65;;;;;;;-2.18;100.00;94157.31;5008622;28;20046;-77
2022/12/15 01:46:50;;;;;;;57.42;22.42;;;;;;;-2.11;100.00;94165.72;5000815;28;20045;-76
2022/12/15 01:49:26;;;;;;;66.32;23.83;;;;;;;-2.22;100.00;94158.75;5004339;28;20056;-76
2022/12/15 01:51:56;;;;;;;61.95;23.25;;;;;;;-2.21;100.00;94155.94;5008600;28;20065;-76
2022/12/15 01:54:33;;;;;;;59.15;22.40;;;;;;;-2.20;100.00;94161.88;5010558;28;20069;-76
2022/12/15 01:57:03;;;;;;;55.78;21.85;;;;;;;-2.25;100.00;94154.03;4992734;28;20424;-76
2022/12/15 01:59:34;;;;;;;53.58;21.70;;;;;;;-2.23;100.00;94162.31;5009320;28;20050;-76
2022/12/15 02:02:01;;;;;;;51.28;21.45;;;;;;;-2.17;100.00;94159.66;5009014;28;20389;-76
2022/12/15 02:04:27;;;;;;;51.33;20.60;;;;;;;-2.21;100.00;94147.41;4996732;28;20119;-76
2022/12/15 02:06:53;;;;;;;53.45;20.65;;;;;;;-2.24;100.00;94155.59;5004338;28;20038;-76
2022/12/15 02:09:20;;;;;;;50.88;21.70;;;;;;;-2.25;100.00;94159.19;5009075;28;20048;-76
2022/12/15 02:11:50;;;;;;;51.03;20.58;;;;;;;-2.28;100.00;94160.41;5010803;28;20045;-76
2022/12/15 02:14:35;;;;;;;51.78;21.63;;;;;;;-2.32;100.00;94165.22;5008117;28;20049;-76
2022/12/15 02:17:10;;;;;;;47.08;21.48;;;;;;;-2.14;100.00;94166.94;4995948;28;20049;-76
2022/12/15 02:20:00;;;;;;;51.45;20.92;;;;;;;-2.18;100.00;94159.88;5008306;28;20532;-76
2022/12/15 02:22:50;;;;;;;50.58;19.98;;;;;;;-2.17;100.00;94174.31;5008365;28;20510;-76
2022/12/15 02:25:30;;;;;;;52.10;20.05;;;;;;;-2.32;100.00;94179.91;5003351;28;20116;-76
2022/12/15 02:28:27;;;;;;;54.65;21.00;;;;;;;-2.32;100.00;94200.50;4991218;28;20050;-76
2022/12/15 02:34:13;;;;;;;52.20;20.85;;;;;;;-2.21;100.00;94201.53;5007172;28;20049;-76
2022/12/15 02:36:43;;;;;;;63.17;21.48;;;;;;;-2.21;100.00;94211.84;5006776;28;20045;-76
2022/12/15 02:39:11;;;;;;;53.65;22.73;;;;;;;-2.34;100.00;94218.78;4998315;28;20503;-76
2022/12/15 02:41:42;;;;;;;52.17;20.63;;;;;;;-2.34;100.00;94218.78;5008176;28;20508;-76
2022/12/15 02:44:20;;;;;;;51.60;20.63;;;;;;;-2.41;100.00;94215.50;5008303;28;20045;-76
2022/12/15 02:46:57;;;;;;;56.63;22.10;;;;;;;-2.34;100.00;94223.94;5010148;28;20109;-76
2022/12/15 02:49:36;;;;;;;59.05;22.63;;;;;;;-2.30;100.00;94222.50;5016958;28;20123;-76
2022/12/15 02:52:18;;;;;;;47.70;19.67;;;;;;;-2.35;100.00;94217.19;5007078;28;20479;-76
2022/12/15 02:55:15;;;;;;;54.42;22.08;;;;;;;-2.33;100.00;94227.28;5006115;28;20400;-76
2022/12/15 02:57:55;;;;;;;55.40;21.20;;;;;;;-2.37;100.00;94224.38;5009842;28;20046;-77
2022/12/15 03:00:21;;;;;;;51.67;21.48;;;;;;;-2.23;100.00;94230.09;5010624;28;20407;-77
2022/12/15 03:02:52;;;;;;;56.95;21.13;;;;;;;-2.38;100.00;94222.78;5009939;28;20049;-77
2022/12/15 03:05:20;;;;;;;54.90;20.58;;;;;;;-2.21;100.00;94224.72;5005111;28;20046;-77
2022/12/15 03:07:49;;;;;;;53.05;21.40;;;;;;;-2.33;100.00;94225.50;5008412;28;20103;-77
2022/12/15 03:10:15;;;;;;;62.38;19.95;;;;;;;-2.23;100.00;94229.34;5008731;28;20042;-77
2022/12/15 03:12:40;;;;;;;50.20;20.17;;;;;;;-2.29;100.00;94221.47;5006456;28;20060;-77
2022/12/15 03:15:06;;;;;;;47.65;20.33;;;;;;;-2.30;100.00;94219.91;5009578;28;20038;-77
2022/12/15 03:17:32;;;;;;;50.92;19.08;;;;;;;-2.24;100.00;94232.91;5005063;28;20050;-76
2022/12/15 03:19:58;;;;;;;47.88;19.05;;;;;;;-2.29;100.00;94221.47;4994252;28;20656;-77
2022/12/15 03:22:23;;;;;;;47.45;19.45;;;;;;;-2.27;100.00;94224.63;5008621;28;20053;-77
2022/12/15 03:24:49;;;;;;;41.38;17.70;;;;;;;-2.30;100.00;94225.06;5008178;28;20049;-77
2022/12/15 03:27:14;;;;;;;41.47;17.75;;;;;;;-2.34;100.00;94228.28;5004959;28;20046;-77
2022/12/15 03:29:40;;;;;;;43.83;18.05;;;;;;;-2.37;100.00;94239.84;5009321;28;20052;-76
2022/12/15 03:32:05;;;;;;;42.85;17.52;;;;;;;-2.24;100.00;94241.44;5011085;28;20045;-77
2022/12/15 03:34:31;;;;;;;40.97;16.35;;;;;;;-2.23;100.00;94255.09;5011834;28;20124;-77
2022/12/15 03:36:56;;;;;;;42.08;18.00;;;;;;;-2.38;100.00;94261.44;4996634;28;20042;-77
2022/12/15 03:39:22;;;;;;;38.53;16.98;;;;;;;-2.42;100.00;94252.56;5009334;28;20054;-77
2022/12/15 03:41:48;;;;;;;45.92;17.80;;;;;;;-2.48;100.00;94249.09;5010068;28;20124;-77
2022/12/15 03:44:13;;;;;;;41.63;17.20;;;;;;;-2.53;100.00;94250.75;5015336;28;20050;-77
2022/12/15 03:46:39;;;;;;;41.45;18.15;;;;;;;-2.51;100.00;94248.75;5013193;28;20038;-77
2022/12/15 03:49:04;;;;;;;42.00;17.83;;;;;;;-2.40;100.00;94255.72;5010859;28;20119;-77
2022/12/15 03:51:30;;;;;;;40.20;17.55;;;;;;;-2.46;100.00;94247.09;5015770;28;20442;-77
2022/12/15 03:53:57;;;;;;;45.17;17.48;;;;;;;-2.53;100.00;94261.03;5014937;28;20037;-78
2022/12/15 03:56:23;;;;;;;37.00;17.23;;;;;;;-2.50;100.00;94265.75;5010286;28;20069;-77
2022/12/15 03:58:49;;;;;;;49.17;18.15;;;;;;;-2.47;100.00;94265.31;5006848;28;20069;-77
2022/12/15 04:01:20;;;;;;;41.42;16.58;;;;;;;-2.48;100.00;94274.06;5014619;28;20092;-78
2022/12/15 04:03:46;;;;;;;44.20;17.13;;;;;;;-2.52;100.00;94268.56;5009964;28;20042;-77
2022/12/15 04:06:11;;;;;;;41.97;18.05;;;;;;;-2.48;100.00;94280.00;5010723;28;20049;-77
2022/12/15 04:08:37;;;;;;;43.35;17.77;;;;;;;-2.52;100.00;94278.09;5012947;28;20045;-77
2022/12/15 04:11:03;;;;;;;39.53;16.90;;;;;;;-2.64;100.00;94270.31;5014243;28;20566;-77
2022/12/15 04:13:28;;;;;;;42.00;16.98;;;;;;;-2.57;100.00;94275.34;5014557;28;20037;-77
2022/12/15 04:15:54;;;;;;;50.20;18.60;;;;;;;-2.59;100.00;94278.16;5013454;28;20046;-77
2022/12/15 04:18:20;;;;;;;39.15;17.77;;;;;;;-2.64;100.00;94281.38;5005017;28;20449;-77
2022/12/15 04:20:45;;;;;;;47.20;19.65;;;;;;;-2.63;100.00;94288.13;5026955;28;20052;-77
2022/12/15 04:23:11;;;;;;;46.38;18.48;;;;;;;-2.76;100.00;94277.94;5011350;28;20070;-77
2022/12/15 05:31:54;;;;;;;51.10;19.65;;;;;;;-2.93;100.00;94334.41;5011594;28;20045;-77
2022/12/15 05:34:31;;;;;;;40.40;16.83;;;;;;;-2.99;100.00;94333.47;5010002;28;20038;-77
2022/12/15 05:36:58;;;;;;;52.80;19.15;;;;;;;-2.94;100.00;94326.88;4998215;28;20045;-77
2022/12/15 05:39:24;;;;;;;51.20;21.42;;;;;;;-2.96;100.00;94333.03;5007887;28;20037;-77
2022/12/15 05:41:50;;;;;;;52.72;21.33;;;;;;;-2.94;100.00;94334.59;5001731;28;20046;-77
2022/12/15 05:44:16;;;;;;;50.95;20.25;;;;;;;-3.01;100.00;94332.88;5010913;28;20046;-77
2022/12/15 05:46:42;;;;;;;55.03;22.58;;;;;;;-2.94;100.00;94332.03;5011582;28;20049;-77
2022/12/15 05:49:11;;;;;;;52.85;21.58;;;;;;;-2.98;100.00;94327.31;5011029;28;20054;-77
2022/12/15 05:51:38;;;;;;;51.90;21.30;;;;;;;-3.07;100.00;94338.13;5011739;28;20066;-77
2022/12/15 05:54:03;;;;;;;54.13;21.88;;;;;;;-3.01;100.00;94338.03;5013024;28;20096;-77
2022/12/15 05:56:29;;;;;;;54.45;21.63;;;;;;;-3.06;100.00;94330.19;5011860;28;20042;-77
2022/12/15 05:58:56;;;;;;;52.35;21.10;;;;;;;-3.13;100.00;94334.59;5011901;28;20048;-77
2022/12/15 06:01:23;;;;;;;54.45;20.83;;;;;;;-3.09;100.00;94337.53;5012441;28;20099;-77
2022/12/15 06:03:48;;;;;;;45.22;19.33;;;;;;;-3.17;100.00;94354.81;5011017;28;20696;-77
2022/12/15 06:06:14;;;;;;;46.40;19.30;;;;;;;-3.11;100.00;94360.91;5012115;28;20046;-77
2022/12/15 06:08:41;;;;;;;49.63;19.55;;;;;;;-3.16;100.00;94371.03;4995760;28;20042;-77
2022/12/15 06:11:10;;;;;;;52.53;20.60;;;;;;;-3.18;100.00;94367.88;5011814;28;20122;-77
2022/12/15 06:13:35;;;;;;;47.17;20.38;;;;;;;-3.11;100.00;94373.00;5011088;28;20096;-77
2022/12/15 06:16:04;;;;;;;63.03;21.08;;;;;;;-3.15;100.00;94375.19;5009724;28;20034;-77
2022/12/15 06:18:33;;;;;;;46.45;20.50;;;;;;;-3.16;100.00;94376.19;5007862;28;20042;-78
2022/12/15 06:21:00;;;;;;;51.35;20.67;;;;;;;-3.17;100.00;94379.78;5011232;28;20046;-78
2022/12/15 06:23:31;;;;;;;45.75;18.17;;;;;;;-3.11;100.00;94378.91;5012001;28;20045;-77
2022/12/15 06:25:57;;;;;;;48.00;20.00;;;;;;;-3.15;100.00;94377.75;5009847;28;20044;-78
2022/12/15 06:28:23;;;;;;;53.08;19.67;;;;;;;-3.32;100.00;94393.75;4997785;28;20046;-78
2022/12/15 06:30:54;;;;;;;49.05;19.95;;;;;;;-3.23;100.00;94385.75;4998089;28;20045;-78
2022/12/15 06:33:21;;;;;;;50.28;20.38;;;;;;;-3.16;100.00;94394.19;5010205;28;20046;-77
2022/12/15 06:35:47;;;;;;;50.83;19.70;;;;;;;-3.11;100.00;94394.34;4999039;28;20092;-78
2022/12/15 06:38:12;;;;;;;46.00;19.35;;;;;;;-3.14;100.00;94399.94;5010766;28;20046;-77
2022/12/15 06:40:38;;;;;;;46.33;18.85;;;;;;;-3.14;100.00;94394.78;5010111;28;20038;-78
2022/12/15 06:43:06;;;;;;;54.30;20.33;;;;;;;-3.22;100.00;94397.63;5008544;28;20046;-77
2022/12/15 06:45:32;;;;;;;45.00;19.20;;;;;;;-3.17;100.00;94395.22;5002939;28;20622;-78
2022/12/15 06:47:58;;;;;;;51.15;20.45;;;;;;;-3.18;100.00;94398.78;5008841;28;20057;-78
2022/12/15 06:50:23;;;;;;;48.78;19.45;;;;;;;-3.16;100.00;94412.19;5005961;28;20038;-78
2022/12/15 06:52:49;;;;;;;44.72;18.73;;;;;;;-3.09;100.00;94417.31;5008337;28;20076;-77
2022/12/15 06:55:14;;;;;;;43.60;19.27;;;;;;;-3.09;100.00;94425.81;5009240;28;20520;-78
2022/12/15 06:57:40;;;;;;;52.38;19.27;;;;;;;-3.26;100.00;94417.03;5008533;28;20065;-78
2022/12/15 07:00:06;;;;;;;53.03;20.95;;;;;;;-3.21;100.00;94415.41;5010705;28;20038;-78
2022/12/15 07:02:33;;;;;;;53.35;21.10;;;;;;;-3.16;100.00;94427.66;5009813;28;20050;-78
2022/12/15 07:04:58;;;;;;;56.15;22.48;;;;;;;-3.17;100.00;94424.28;5012531;28;20046;-78
2022/12/15 07:07:25;;;;;;;60.25;20.88;;;;;;;-3.13;100.00;94422.88;5005978;28;20771;-77
2022/12/15 07:09:50;;;;;;;48.50;18.70;;;;;;;-3.13;100.00;94427.25;5014455;28;20462;-78
2022/12/15 07:12:16;;;;;;;55.97;20.85;;;;;;;-3.12;100.00;94423.66;5012903;28;20064;-78
2022/12/15 07:14:42;;;;;;;49.53;20.42;;;;;;;-3.16;100.00;94422.50;5008294;28;20050;-78
2022/12/15 07:17:09;;;;;;;52.05;21.80;;;;;;;-3.16;100.00;94422.50;5010961;28;20128;-78
2022/12/15 07:19:35;;;;;;;53.10;20.60;;;;;;;-3.17;100.00;94410.66;4995303;28;20045;-78
2022/12/15 07:22:02;;;;;;;50.17;20.73;;;;;;;-3.15;100.00;94413.78;5009867;28;20062;-78
2022/12/15 07:24:27;;;;;;;52.42;19.88;;;;;;;-3.02;100.00;94423.97;5014049;28;20415;-78
2022/12/15 07:26:53;;;;;;;49.25;20.27;;;;;;;-3.13;100.00;94427.25;5010765;28;20044;-78
2022/12/15 07:29:19;;;;;;;51.42;20.40;;;;;;;-3.15;100.00;94429.22;5007993;28;20431;-78
2022/12/15 07:31:44;;;;;;;46.95;18.95;;;;;;;-3.16;100.00;94437.94;5012350;28;20458;-78
2022/12/15 07:34:10;;;;;;;52.78;20.23;;;;;;;-3.14;100.00;94441.09;5014318;28;20057;-78
2022/12/15 07:36:37;;;;;;;49.22;20.35;;;;;;;-3.08;100.00;94435.13;5019908;28;20050;-78
2022/12/15 07:39:04;;;;;;;46.58;20.08;;;;;;;-3.03;100.00;94431.91;5014793;28;20093;-77
2022/12/15 07:41:30;;;;;;;58.63;22.45;;;;;;;-3.18;100.00;94424.50;5011249;28;20038;-78
2022/12/15 07:43:56;;;;;;;53.95;20.05;;;;;;;-3.14;100.00;94421.28;5006422;28;20516;-77
2022/12/15 07:46:22;;;;;;;51.03;19.88;;;;;;;-3.13;100.00;94427.25;5010269;28;20049;-76
2022/12/15 07:48:48;;;;;;;51.80;20.85;;;;;;;-3.02;100.00;94423.19;5005216;28;20053;-76
2022/12/15 07:51:14;;;;;;;49.25;21.35;;;;;;;-3.13;100.00;94422.09;5003537;28;20042;-76
2022/12/15 07:53:39;;;;;;;44.50;19.20;;;;;;;-3.01;100.00;94410.09;5006816;28;20112;-75
2022/12/15 07:56:06;;;;;;;45.30;19.45;;;;;;;-3.03;100.00;94409.53;5007971;28;20090;-76
2022/12/15 07:58:32;;;;;;;57.72;20.17;;;;;;;-2.87;100.00;94420.31;5020352;28;20042;-76
2022/12/15 08:01:00;;;;;;;50.45;22.13;;;;;;;-2.86;100.00;94416.72;5006030;28;20515;-76
2022/12/15 08:03:26;;;;;;;56.05;20.98;;;;;;;-2.84;100.00;94415.50;5008107;28;20555;-75
2022/12/15 08:05:52;;;;;;;51.38;20.60;;;;;;;-2.81;100.00;94411.72;5002254;28;20046;-75
2022/12/15 08:08:18;;;;;;;49.42;21.25;;;;;;;-2.83;100.00;94426.59;5014063;28;20053;-76
2022/12/15 08:10:44;;;;;;;45.03;18.70;;;;;;;-2.85;100.00;94433.75;5010866;28;20038;-76
2022/12/15 08:13:10;;;;;;;56.70;21.42;;;;;;;-2.99;100.00;94439.00;5023972;28;20053;-75
2022/12/15 08:15:36;;;;;;;59.40;22.30;;;;;;;-2.85;100.00;94433.75;5023654;28;20056;-75
2022/12/15 08:18:03;;;;;;;59.42;21.27;;;;;;;-2.86;100.00;94438.13;5031017;28;20066;-75
2022/12/15 08:20:32;;;;;;;50.67;19.52;;;;;;;-2.71;100.00;94450.66;5032527;28;20076;-76
2022/12/15 08:22:58;;;;;;;55.75;21.20;;;;;;;-2.90;100.00;94446.44;5038594;28;20030;-75
2022/12/15 08:25:27;;;;;;;52.80;21.40;;;;;;;-2.88;100.00;94455.53;5034180;28;20086;-76
2022/12/15 08:27:53;;;;;;;56.53;20.02;;;;;;;-2.82;100.00;94469.38;5037722;28;20056;-73
2022/12/15 08:30:19;;;;;;;59.03;22.58;;;;;;;-2.72;100.00;94469.66;5033962;28;20041;-74
2022/12/15 08:32:46;;;;;;;53.70;21.48;;;;;;;-2.68;100.00;94481.13;5026611;28;20089;-75
2022/12/15 08:35:12;;;;;;;52.85;20.50;;;;;;;-2.76;100.00;94483.97;5011019;28;20042;-73
2022/12/15 08:37:38;;;;;;;57.95;22.00;;;;;;;-2.67;100.00;94498.16;5003683;28;20511;-76
2022/12/15 08:40:05;;;;;;;56.15;21.77;;;;;;;-2.55;100.00;94489.75;5004391;28;20091;-75
2022/12/15 08:42:37;;;;;;;51.80;20.98;;;;;;;-2.45;100.00;94487.47;5005019;28;20045;-75
2022/12/15 08:45:03;;;;;;;53.28;21.70;;;;;;;-2.47;100.00;94481.72;5007799;28;20053;-75
2022/12/15 08:47:30;;;;;;;48.25;20.65;;;;;;;-2.35;100.00;94485.19;4997311;28;20575;-76
2022/12/15 08:49:55;;;;;;;49.25;20.45;;;;;;;-2.27;100.00;94492.66;5002733;28;20046;-74
2022/12/15 08:52:22;;;;;;;51.00;21.15;;;;;;;-2.38;100.00;94485.63;4995316;28;20089;-75
2022/12/15 08:54:48;;;;;;;54.03;22.20;;;;;;;-2.31;100.00;94491.50;5002574;28;20046;-78
2022/12/15 08:57:13;;;;;;;56.05;22.20;;;;;;;-2.29;100.00;94493.84;5009787;28;20088;-77
2022/12/15 08:59:40;;;;;;;53.85;22.15;;;;;;;-2.39;100.00;94504.66;5000882;28;20504;-77
2022/12/15 09:02:05;;;;;;;49.90;21.48;;;;;;;-2.36;100.00;94506.03;5004455;28;20053;-77
2022/12/15 09:04:31;;;;;;;56.28;23.50;;;;;;;-2.33;100.00;94503.81;5008442;28;20144;-77
2022/12/15 09:06:57;;;;;;;54.35;20.98;;;;;;;-2.34;100.00;94502.22;5005968;28;20524;-77
2022/12/15 09:09:22;;;;;;;50.42;21.35;;;;;;;-2.36;100.00;94499.06;5008054;28;20058;-76
2022/12/15 09:11:49;;;;;;;51.03;21.95;;;;;;;-2.34;100.00;94502.22;4998199;28;20073;-77
2022/12/15 09:14:16;;;;;;;56.20;21.30;;;;;;;-2.41;100.00;94498.13;4996332;28;20660;-77
2022/12/15 09:16:45;;;;;;;51.00;21.42;;;;;;;-2.28;100.00;94501.38;5003033;28;20052;-77
2022/12/15 09:19:10;;;;;;;61.60;21.80;;;;;;;-2.31;100.00;94491.50;5003322;28;20115;-77
2022/12/15 09:21:36;;;;;;;51.80;21.15;;;;;;;-2.29;100.00;94476.59;5004587;28;20484;-77
2022/12/15 09:24:02;;;;;;;62.03;23.95;;;;;;;-2.32;100.00;94468.53;5010421;28;20488;-77
2022/12/15 09:26:30;;;;;;;55.28;22.20;;;;;;;-2.22;100.00;94473.19;5008336;28;20038;-77
2022/12/15 09:28:56;;;;;;;62.10;22.45;;;;;;;-2.29;100.00;94468.88;5001765;28;20037;-76
2022/12/15 09:31:27;;;;;;;69.45;24.38;;;;;;;-2.25;100.00;94468.47;5010267;28;20092;-77
2022/12/15 09:33:55;;;;;;;58.58;23.00;;;;;;;-2.09;100.00;94467.88;5005578;28;20049;-77
2022/12/15 09:36:22;;;;;;;57.75;22.17;;;;;;;-2.22;100.00;94468.81;5001177;28;20130;-78
2022/12/15 09:38:47;;;;;;;56.17;22.05;;;;;;;-2.17;100.00;94455.25;5005253;28;20041;-78
2022/12/15 09:41:19;;;;;;;65.85;25.17;;;;;;;-2.06;100.00;94457.13;5004817;28;20042;-78
2022/12/15 09:44:12;;;;;;;59.85;22.98;;;;;;;-2.19;100.00;94462.44;4999886;28;20038;-77
2022/12/15 09:46:40;;;;;;;56.00;22.88;;;;;;;-2.03;100.00;94467.00;5007860;28;20056;-78
2022/12/15 09:49:37;;;;;;;56.17;22.33;;;;;;;-2.09;100.00;94462.72;5003548;28;20038;-78
2022/12/15 09:52:10;;;;;;;66.40;24.90;;;;;;;-2.10;100.00;94461.94;4998422;28;20062;-78
2022/12/15 09:54:36;;;;;;;62.08;23.38;;;;;;;-2.09;100.00;94460.13;5001665;28;20041;-76
2022/12/15 09:57:10;;;;;;;68.55;24.77;;;;;;;-2.07;100.00;94450.38;5002899;28;20438;-77
2022/12/15 09:59:54;;;;;;;;;;;;;;;-2.07;100.00;94450.38;5010610;28;20037;-78
2022/12/15 10:02:44;;;;;;;55.60;22.35;;;;;;;-1.99;100.00;94447.53;5005232;28;19927;-78
2022/12/15 10:05:29;;;;;;;73.38;25.88;;;;;;;-2.00;100.00;94451.09;5021007;28;20053;-78
2022/12/15 10:07:57;;;;;;;66.13;24.42;;;;;;;-2.00;100.00;94440.78;4997956;28;20045;-77
2022/12/15 10:10:28;;;;;;;70.28;25.98;;;;;;;-1.99;100.00;94429.47;5005507;28;20108;-77
2022/12/15 10:12:57;;;;;;;67.43;25.75;;;;;;;-1.85;100.00;94437.03;5002177;28;20061;-77
2022/12/15 10:15:40;;;;;;;70.43;25.42;;;;;;;-1.85;100.00;94424.13;5006163;28;20053;-78
2022/12/15 10:18:17;;;;;;;63.13;25.08;;;;;;;-1.83;100.00;94419.56;5005612;28;20046;-78
2022/12/15 10:20:43;;;;;;;59.42;24.55;;;;;;;-1.82;100.00;94416.00;5001194;28;20119;-78
2022/12/15 10:23:14;;;;;;;68.10;25.05;;;;;;;-1.79;100.00;94420.72;5003032;28;20401;-77
2022/12/15 10:25:45;;;;;;;63.67;24.08;;;;;;;-1.75;100.00;94427.00;5008744;28;20041;-77
2022/12/15 10:28:28;;;;;;;55.75;24.15;;;;;;;-1.67;100.00;94434.41;5000881;28;20052;-79
2022/12/15 10:31:17;;;;;;;64.10;23.52;;;;;;;-1.61;100.00;94428.41;5007980;28;20451;-78
2022/12/15 10:33:48;;;;;;;64.65;24.67;;;;;;;-1.57;100.00;94421.00;4996318;28;20041;-78
2022/12/15 10:36:15;;;;;;;60.05;23.00;;;;;;;-1.59;100.00;94420.44;4993738;28;20050;-78
2022/12/15 10:38:46;;;;;;;63.05;23.30;;;;;;;-1.59;100.00;94431.53;5001858;28;20543;-77
2022/12/15 10:41:20;;;;;;;61.75;23.65;;;;;;;-1.63;100.00;94435.56;5008951;28;20046;-78
2022/12/15 10:43:48;;;;;;;51.25;21.73;;;;;;;-1.65;100.00;94426.47;4999478;28;20117;-78
2022/12/15 10:46:33;;;;;;;69.47;23.30;;;;;;;-1.65;100.00;94422.09;5002312;28;20057;-78
2022/12/15 10:49:22;;;;;;;64.95;23.90;;;;;;;-1.60;100.00;94414.47;5008298;28;20072;-75
2022/12/15 10:52:01;;;;;;;53.97;21.33;;;;;;;-1.56;100.00;94409.69;5000818;28;20072;-76
2022/12/15 10:54:33;;;;;;;67.28;23.52;;;;;;;-1.49;100.00;94409.59;5005600;28;20033;-76
2022/12/15 10:57:14;;;;;;;58.67;22.00;;;;;;;-1.48;100.00;94390.50;4999214;28;20114;-76
2022/12/15 10:59:40;;;;;;;62.13;22.48;;;;;;;-1.43;100.00;94372.56;5003700;28;20117;-77
2022/12/15 11:02:22;;;;;;;57.28;21.55;;;;;;;-1.34;100.00;94371.22;5001643;28;20566;-75
2022/12/15 11:05:09;;;;;;;55.95;22.52;;;;;;;-1.37;100.00;94370.91;5003883;28;20042;-76
2022/12/15 11:07:40;;;;;;;53.38;22.33;;;;;;;-1.44;100.00;94386.47;5000412;28;20046;-76
2022/12/15 11:10:21;;;;;;;55.00;22.05;;;;;;;-1.35;100.00;94392.91;5005080;28;20038;-76
2022/12/15 11:13:07;;;;;;;52.83;21.42;;;;;;;-1.61;100.00;94401.81;5000903;28;20041;-76
2022/12/15 11:15:38;;;;;;;51.30;20.08;;;;;;;-1.48;100.00;94395.66;4993258;28;20054;-76
2022/12/15 11:18:25;;;;;;;58.05;21.30;;;;;;;-1.50;100.00;94393.31;4999766;28;20038;-75
2022/12/15 11:20:53;;;;;;;52.45;21.60;;;;;;;-1.53;100.00;94380.06;5002111;28;20069;-75
2022/12/15 11:23:56;;;;;;;56.05;20.58;;;;;;;-1.38;100.00;94375.25;5009398;28;20056;-76
2022/12/15 11:26:33;;;;;;;52.20;19.98;;;;;;;-1.43;100.00;94367.41;5008783;28;20038;-76
2022/12/15 11:29:08;;;;;;;54.85;22.05;;;;;;;-1.37;100.00;94361.34;5007493;28;20049;-76
2022/12/15 11:31:39;;;;;;;55.88;20.90;;;;;;;-1.25;100.00;94359.59;5003039;28;20811;-78
2022/12/15 11:34:17;;;;;;;62.35;23.98;;;;;;;-1.45;100.00;94366.84;5012122;28;20062;-79
2022/12/15 11:36:58;;;;;;;77.20;29.88;;;;;;;-1.58;100.00;94366.03;5017916;28;20062;-80
2022/12/15 11:39:38;;;;;;;77.03;27.95;;;;;;;-1.50;100.00;94361.56;5010278;28;20050;-80
2022/12/15 11:42:25;;;;;;;73.93;26.92;;;;;;;-1.59;100.00;94359.31;5017640;28;20400;-78
2022/12/15 11:45:10;;;;;;;75.70;28.23;;;;;;;-1.58;100.00;94376.38;4996767;28;20058;-79
2022/12/15 11:48:13;;;;;;;74.47;26.05;;;;;;;-1.61;100.00;94381.97;5006728;28;20471;-78
2022/12/15 11:50:38;;;;;;;81.05;28.10;;;;;;;-1.58;100.00;94371.19;4953051;28;20126;-79
2022/12/15 11:53:31;;;;;;;74.80;25.60;;;;;;;-1.55;100.00;94374.34;5003283;28;20065;-78
2022/12/15 11:56:27;;;;;;;76.38;27.15;;;;;;;-1.50;100.00;94366.72;5013191;28;20038;-79
2022/12/15 11:59:11;;;;;;;70.95;25.98;;;;;;;-1.52;100.00;94374.69;5011055;28;20095;-82
2022/12/15 12:02:20;;;;;;;63.45;24.70;;;;;;;-1.38;100.00;94359.00;5017669;28;20045;-80
2022/12/15 12:05:14;;;;;;;73.60;26.80;;;;;;;-1.47;100.00;94368.88;5013631;28;20052;-80
2022/12/15 12:07:48;;;;;;;78.60;29.33;;;;;;;-1.70;100.00;94367.78;5017346;28;20041;-79
2022/12/15 12:11:01;;;;;;;86.95;29.70;;;;;;;-1.68;100.00;94360.63;5016946;28;20295;-79
2022/12/15 12:13:35;;;;;;;71.30;27.20;;;;;;;-1.66;100.00;94353.44;4972245;28;20047;-79
2022/12/15 12:16:23;;;;;;;79.47;28.35;;;;;;;-1.65;100.00;94339.56;5006278;28;20654;-79
2022/12/15 12:19:11;;;;;;;84.57;29.58;;;;;;;-1.55;100.00;94322.72;5023140;28;20046;-78
2022/12/15 12:21:46;;;;;;;76.35;27.30;;;;;;;-1.68;100.00;94314.22;5014611;28;20042;-77
2022/12/15 12:24:25;;;;;;;72.65;30.05;;;;;;;-1.77;100.00;94305.19;5012901;28;20042;-78
2022/12/15 12:27:01;;;;;;;78.55;28.42;;;;;;;-1.68;100.00;94303.88;5022911;28;20050;-80
2022/12/15 12:29:36;;;;;;;76.00;26.58;;;;;;;-1.57;100.00;94290.22;5013783;28;20042;-79
2022/12/15 12:32:06;;;;;;;78.00;27.55;;;;;;;-1.69;100.00;94302.31;5010832;28;20069;-79
2022/12/15 12:35:10;;;;;;;79.88;26.55;;;;;;;-1.72;100.00;94292.44;5013472;28;20050;-79
2022/12/15 12:38:00;;;;;;;83.72;27.58;;;;;;;-1.62;100.00;94277.19;4969892;28;20058;-80
2022/12/15 12:40:50;;;;;;;81.28;28.52;;;;;;;-1.68;100.00;94278.09;5010812;28;20048;-79
2022/12/15 12:43:30;;;;;;;69.80;25.27;;;;;;;-1.60;100.00;94285.47;5004442;28;20046;-80
2022/12/15 12:46:05;;;;;;;66.63;25.70;;;;;;;-1.61;100.00;94283.13;5003480;28;20101;-82
2022/12/15 12:48:47;;;;;;;76.07;26.35;;;;;;;-1.79;100.00;94291.75;5019304;28;20435;-80
2022/12/15 12:51:28;;;;;;;80.13;28.80;;;;;;;-1.72;100.00;94281.31;5016703;28;20042;-81
2022/12/15 12:53:55;;;;;;;81.60;27.92;;;;;;;-1.73;100.00;94290.84;5010247;28;20042;-78
2022/12/15 12:56:50;;;;;;;77.70;27.40;;;;;;;-1.76;100.00;94291.31;5002452;28;20084;-77
2022/12/15 12:59:28;;;;;;;79.18;26.65;;;;;;;-1.81;100.00;94293.75;4988138;28;20046;-78
2022/12/15 13:01:55;;;;;;;86.15;29.05;;;;;;;-1.83;100.00;94298.34;5004738;28;20046;-77
2022/12/15 13:04:29;;;;;;;73.90;26.60;;;;;;;-1.82;100.00;94297.34;5009290;28;20049;-77
2022/12/15 13:06:54;;;;;;;;;;;;;;;-1.81;100.00;94299.72;5008537;28;20563;-78
2022/12/15 13:09:22;;;;;;;76.18;25.75;;;;;;;-1.82;100.00;94297.34;5009777;28;20016;-77
2022/12/15 13:11:49;;;;;;;70.82;25.08;;;;;;;-1.84;100.00;94294.19;5009949;28;20034;-77
2022/12/15 13:14:38;;;;;;;83.85;28.45;;;;;;;-1.83;100.00;94298.34;5006052;28;20041;-78
2022/12/15 13:17:13;;;;;;;82.32;28.98;;;;;;;-1.92;100.00;94314.13;4996271;28;20084;-78
2022/12/15 13:19:57;;;;;;;75.45;27.38;;;;;;;-1.87;100.00;94310.13;4998575;28;20767;-78
2022/12/15 13:22:28;;;;;;;71.78;27.45;;;;;;;-1.89;100.00;94307.75;5012786;28;20088;-78
2022/12/15 13:24:55;;;;;;;83.75;27.88;;;;;;;-1.86;100.00;94307.31;5012534;28;20455;-78
2022/12/15 13:27:21;;;;;;;57.75;23.38;;;;;;;-2.15;100.00;94290.88;5011565;28;20046;-77
2022/12/15 13:30:14;;;;;;;81.40;28.60;;;;;;;-1.96;100.00;94271.75;4994344;28;20500;-78
2022/12/15 13:32:43;;;;;;;86.70;29.17;;;;;;;-1.99;100.00;94267.03;5006080;28;20042;-78
2022/12/15 13:35:11;;;;;;;92.22;30.02;;;;;;;-2.04;100.00;94264.34;5011789;28;20602;-78
2022/12/15 13:37:57;;;;;;;89.15;29.08;;;;;;;-2.07;100.00;94262.19;5009188;28;20046;-78
2022/12/15 13:40:35;;;;;;;84.22;29.98;;;;;;;-2.18;100.00;94274.06;4992509;28;20515;-77
2022/12/15 13:43:04;;;;;;;85.25;28.88;;;;;;;-2.12;100.00;94277.56;5005631;28;20038;-77
2022/12/15 13:45:49;;;;;;;77.40;27.92;;;;;;;-2.10;100.00;94273.75;4999448;28;20054;-78
2022/12/15 13:48:37;;;;;;;77.75;28.10;;;;;;;-2.09;100.00;94261.66;5000072;28;20065;-77
2022/12/15 13:51:20;;;;;;;69.97;27.45;;;;;;;-2.36;100.00;94256.84;5003363;28;20045;-78
2022/12/15 13:53:53;;;;;;;84.75;29.15;;;;;;;-2.35;100.00;94268.72;5006454;28;20038;-77